| time (UTC) | temp F | wind direction | speed MPH | gust MPH | rain 1hr in | rain 24hr in | rain mn in | humidity % | barometer mb |
| 20260507214157 | 86 | 106 | 3.0 | 5.0 | 0.00 | 0.00 | 0.00 | 81 | 1006.4 |
| 20260507213656 | 86 | 55 | 1.0 | 3.0 | 0.00 | 0.00 | 0.00 | 82 | 1006.5 |
| 20260507213157 | 86 | 109 | 3.0 | 6.0 | 0.00 | 0.00 | 0.00 | 81 | 1006.5 |
| 20260507212656 | 86 | 65 | 2.0 | 4.0 | 0.00 | 0.00 | 0.00 | 81 | 1006.5 |
| 20260507212159 | 86 | 97 | 2.0 | 3.0 | 0.00 | 0.00 | 0.00 | 81 | 1006.5 |
| 20260507211657 | 86 | 76 | 1.0 | 2.0 | 0.00 | 0.00 | 0.00 | 81 | 1006.5 |
| 20260507211156 | 86 | 349 | 1.0 | 3.0 | 0.00 | 0.00 | 0.00 | 81 | 1006.5 |
| 20260507210657 | 86 | 134 | 1.0 | 2.0 | 0.00 | 0.00 | 0.00 | 81 | 1006.5 |
| 20260507210157 | 86 | 58 | 1.0 | 3.0 | 0.00 | 0.00 | 0.00 | 81 | 1006.5 |
| 20260507205657 | 86 | 101 | 1.0 | 3.0 | 0.00 | 0.00 | 0.00 | 81 | 1006.8 |
| 20260507205156 | 86 | 73 | 1.0 | 2.0 | 0.00 | 0.00 | 0.00 | 81 | 1006.9 |
| 20260507204657 | 86 | 38 | 2.0 | 4.0 | 0.00 | 0.00 | 0.00 | 81 | 1006.9 |
| 20260507204157 | 86 | 79 | 1.0 | 3.0 | 0.00 | 0.00 | 0.00 | 80 | 1007.0 |
| 20260507203656 | 86 | 112 | 3.0 | 6.0 | 0.00 | 0.00 | 0.00 | 80 | 1007.1 |
| 20260507203156 | 86 | 124 | 1.0 | 2.0 | 0.00 | 0.00 | 0.00 | 80 | 1007.2 |
| 20260507202657 | 86 | 92 | 2.0 | 3.0 | 0.00 | 0.00 | 0.00 | 80 | 1007.2 |
| 20260507202156 | 86 | 77 | 1.0 | 3.0 | 0.00 | 0.00 | 0.00 | 81 | 1007.2 |
| 20260507201657 | 86 | 68 | 1.0 | 2.0 | 0.00 | 0.00 | 0.00 | 80 | 1007.2 |
| 20260507201157 | 86 | 107 | 2.0 | 4.0 | 0.00 | 0.00 | 0.00 | 80 | 1007.3 |
| 20260507200656 | 86 | 80 | 2.0 | 5.0 | 0.00 | 0.00 | 0.00 | 81 | 1007.4 |
| 20260507200157 | 86 | 137 | 1.0 | 3.0 | 0.00 | 0.00 | 0.00 | 81 | 1007.4 |
| 20260507195657 | 86 | 108 | 2.0 | 4.0 | 0.00 | 0.00 | 0.00 | 81 | 1007.5 |
| 20260507195156 | 86 | 141 | 1.0 | 4.0 | 0.00 | 0.00 | 0.00 | 81 | 1007.6 |
| 20260507194657 | 86 | 107 | 2.0 | 6.0 | 0.00 | 0.00 | 0.00 | 81 | 1007.6 |
| 20260507194157 | 86 | 129 | 2.0 | 4.0 | 0.00 | 0.00 | 0.00 | 80 | 1007.6 |
| 20260507193657 | 86 | 81 | 2.0 | 2.0 | 0.00 | 0.00 | 0.00 | 80 | 1007.7 |
| 20260507193157 | 86 | 107 | 2.0 | 4.0 | 0.00 | 0.00 | 0.00 | 79 | 1007.7 |
| 20260507192656 | 86 | 109 | 1.0 | 2.0 | 0.00 | 0.00 | 0.00 | 80 | 1007.7 |
| 20260507192158 | 86 | 149 | 2.0 | 5.0 | 0.00 | 0.00 | 0.00 | 80 | 1007.8 |
| 20260507191656 | 86 | 71 | 1.0 | 2.0 | 0.00 | 0.00 | 0.00 | 80 | 1007.9 |
| 20260507191157 | 86 | 98 | 2.0 | 3.0 | 0.00 | 0.00 | 0.00 | 80 | 1007.9 |
| 20260507190657 | 86 | 90 | 3.0 | 5.0 | 0.00 | 0.00 | 0.00 | 80 | 1008.0 |
| 20260507190156 | 86 | 98 | 3.0 | 5.0 | 0.00 | 0.00 | 0.00 | 80 | 1008.0 |
| 20260507185659 | 86 | 138 | 3.0 | 5.0 | 0.00 | 0.00 | 0.00 | 80 | 1008.1 |
| 20260507185157 | 86 | 115 | 2.0 | 4.0 | 0.00 | 0.00 | 0.00 | 80 | 1008.2 |
| 20260507184657 | 86 | 127 | 2.0 | 3.0 | 0.00 | 0.00 | 0.00 | 80 | 1008.2 |
| 20260507184156 | 86 | 115 | 1.0 | 2.0 | 0.00 | 0.00 | 0.00 | 79 | 1008.3 |
| 20260507183656 | 87 | 99 | 3.0 | 6.0 | 0.00 | 0.00 | 0.00 | 79 | 1008.3 |
| 20260507183158 | 87 | 98 | 3.0 | 5.0 | 0.00 | 0.00 | 0.00 | 79 | 1008.3 |
| 20260507182656 | 87 | 95 | 4.0 | 9.0 | 0.00 | 0.00 | 0.00 | 79 | 1008.3 |
| 20260507182156 | 87 | 97 | 2.0 | 4.0 | 0.00 | 0.00 | 0.00 | 78 | 1008.4 |
| 20260507181656 | 87 | 113 | 2.0 | 5.0 | 0.00 | 0.00 | 0.00 | 79 | 1008.4 |
| 20260507181157 | 87 | 105 | 2.0 | 4.0 | 0.00 | 0.00 | 0.00 | 78 | 1008.4 |
| 20260507180657 | 87 | 89 | 2.0 | 5.0 | 0.00 | 0.00 | 0.00 | 78 | 1008.4 |
| 20260507180157 | 87 | 104 | 3.0 | 4.0 | 0.00 | 0.00 | 0.00 | 78 | 1008.4 |
| 20260507175657 | 87 | 110 | 2.0 | 4.0 | 0.00 | 0.00 | 0.00 | 78 | 1008.4 |
| 20260507175200 | 87 | 148 | 2.0 | 4.0 | 0.00 | 0.00 | 0.00 | 78 | 1008.4 |
| 20260507174657 | 87 | 77 | 2.0 | 3.0 | 0.00 | 0.00 | 0.00 | 78 | 1008.5 |
| 20260507174156 | 87 | 97 | 2.0 | 4.0 | 0.00 | 0.00 | 0.00 | 78 | 1008.6 |
| 20260507173701 | 87 | 120 | 3.0 | 4.0 | 0.00 | 0.00 | 0.00 | 78 | 1008.6 |
| 20260507173157 | 87 | 60 | 1.0 | 3.0 | 0.00 | 0.00 | 0.00 | 77 | 1008.7 |
| 20260507172659 | 87 | 93 | 2.0 | 4.0 | 0.00 | 0.00 | 0.00 | 78 | 1008.7 |
| 20260507172157 | 87 | 109 | 3.0 | 4.0 | 0.00 | 0.00 | 0.00 | 78 | 1008.8 |
| 20260507171657 | 87 | 102 | 3.0 | 6.0 | 0.00 | 0.00 | 0.00 | 78 | 1008.7 |
| 20260507171157 | 87 | 88 | 3.0 | 4.0 | 0.00 | 0.00 | 0.00 | 77 | 1008.8 |
| 20260507170657 | 87 | 100 | 2.0 | 4.0 | 0.00 | 0.00 | 0.00 | 78 | 1008.8 |
| 20260507170157 | 87 | 71 | 1.0 | 2.0 | 0.00 | 0.00 | 0.00 | 78 | 1008.8 |
| 20260507165656 | 87 | 124 | 1.0 | 3.0 | 0.00 | 0.00 | 0.00 | 78 | 1008.8 |
| 20260507165157 | 87 | 116 | 1.0 | 3.0 | 0.00 | 0.00 | 0.00 | 78 | 1008.8 |
| 20260507164659 | 87 | 97 | 3.0 | 4.0 | 0.00 | 0.00 | 0.00 | 78 | 1008.8 |
| 20260507164157 | 87 | 63 | 2.0 | 3.0 | 0.00 | 0.00 | 0.00 | 78 | 1008.8 |
| 20260507163657 | 87 | 132 | 3.0 | 6.0 | 0.00 | 0.00 | 0.00 | 78 | 1008.8 |
| 20260507163157 | 87 | 96 | 2.0 | 4.0 | 0.00 | 0.00 | 0.00 | 78 | 1008.8 |
| 20260507162656 | 87 | 101 | 3.0 | 5.0 | 0.00 | 0.00 | 0.00 | 78 | 1008.9 |
| 20260507162202 | 87 | 103 | 3.0 | 5.0 | 0.00 | 0.00 | 0.00 | 79 | 1008.8 |
| 20260507161657 | 87 | 117 | 2.0 | 3.0 | 0.00 | 0.00 | 0.00 | 79 | 1008.8 |
| 20260507161157 | 87 | 98 | 2.0 | 5.0 | 0.00 | 0.00 | 0.00 | 79 | 1008.7 |
| 20260507160659 | 87 | 108 | 2.0 | 5.0 | 0.00 | 0.00 | 0.00 | 78 | 1008.6 |
| 20260507160158 | 87 | 246 | 0.0 | 1.0 | 0.00 | 0.00 | 0.00 | 78 | 1008.5 |
| 20260507155657 | 87 | 119 | 3.0 | 4.0 | 0.00 | 0.00 | 0.00 | 77 | 1008.5 |
| 20260507155157 | 87 | 106 | 1.0 | 2.0 | 0.00 | 0.00 | 0.00 | 77 | 1008.4 |
| 20260507154657 | 87 | 92 | 2.0 | 3.0 | 0.00 | 0.00 | 0.00 | 77 | 1008.4 |
| 20260507154157 | 87 | 108 | 1.0 | 2.0 | 0.00 | 0.00 | 0.00 | 77 | 1008.3 |
| 20260507153659 | 87 | 112 | 2.0 | 3.0 | 0.00 | 0.00 | 0.00 | 77 | 1008.2 |
| 20260507153156 | 87 | 93 | 2.0 | 4.0 | 0.00 | 0.00 | 0.00 | 77 | 1008.0 |
| 20260507152656 | 87 | 103 | 1.0 | 3.0 | 0.00 | 0.00 | 0.00 | 78 | 1007.9 |
| 20260507152157 | 87 | 104 | 2.0 | 4.0 | 0.00 | 0.00 | 0.00 | 78 | 1007.7 |
| 20260507151658 | 87 | 111 | 2.0 | 4.0 | 0.00 | 0.00 | 0.00 | 78 | 1007.6 |
| 20260507151159 | 87 | 110 | 3.0 | 7.0 | 0.00 | 0.00 | 0.00 | 77 | 1007.5 |
| 20260507150657 | 87 | 139 | 1.0 | 2.0 | 0.00 | 0.00 | 0.00 | 77 | 1007.4 |
| 20260507150156 | 87 | 107 | 3.0 | 5.0 | 0.00 | 0.00 | 0.00 | 77 | 1007.2 |
| 20260507145658 | 87 | 82 | 4.0 | 6.0 | 0.00 | 0.00 | 0.00 | 77 | 1007.1 |
| 20260507145157 | 87 | 89 | 3.0 | 6.0 | 0.00 | 0.00 | 0.00 | 77 | 1007.0 |
| 20260507144659 | 87 | 114 | 4.0 | 6.0 | 0.00 | 0.00 | 0.00 | 77 | 1006.9 |
| 20260507144157 | 87 | 101 | 3.0 | 8.0 | 0.00 | 0.00 | 0.00 | 77 | 1006.9 |
| 20260507143658 | 87 | 97 | 2.0 | 6.0 | 0.00 | 0.00 | 0.00 | 76 | 1006.8 |
| 20260507143157 | 87 | 96 | 3.0 | 5.0 | 0.00 | 0.00 | 0.00 | 76 | 1006.7 |
| 20260507142658 | 87 | 116 | 4.0 | 6.0 | 0.00 | 0.00 | 0.00 | 76 | 1006.6 |
| 20260507142156 | 87 | 73 | 2.0 | 5.0 | 0.00 | 0.00 | 0.00 | 76 | 1006.6 |
| 20260507141656 | 87 | 110 | 2.0 | 5.0 | 0.00 | 0.00 | 0.00 | 76 | 1006.5 |
| 20260507141158 | 87 | 74 | 2.0 | 5.0 | 0.00 | 0.00 | 0.00 | 77 | 1006.4 |
| 20260507140656 | 87 | 114 | 1.0 | 3.0 | 0.00 | 0.00 | 0.00 | 77 | 1006.4 |
| 20260507140157 | 87 | 82 | 1.0 | 2.0 | 0.00 | 0.00 | 0.00 | 76 | 1006.3 |
| 20260507135657 | 87 | 87 | 2.0 | 4.0 | 0.00 | 0.00 | 0.00 | 77 | 1006.3 |
| 20260507135156 | 87 | 70 | 2.0 | 4.0 | 0.00 | 0.00 | 0.00 | 78 | 1006.3 |
| 20260507134657 | 87 | 102 | 2.0 | 4.0 | 0.00 | 0.00 | 0.00 | 78 | 1006.2 |
| 20260507134156 | 87 | 98 | 3.0 | 5.0 | 0.00 | 0.00 | 0.00 | 78 | 1006.1 |
| 20260507133657 | 87 | 120 | 2.0 | 4.0 | 0.00 | 0.00 | 0.00 | 78 | 1006.0 |
| 20260507133158 | 87 | 106 | 1.0 | 2.0 | 0.00 | 0.00 | 0.00 | 79 | 1006.0 |
| 20260507132656 | 87 | 114 | 3.0 | 6.0 | 0.00 | 0.00 | 0.00 | 79 | 1005.9 |
| 20260507132158 | 87 | 118 | 2.0 | 4.0 | 0.00 | 0.00 | 0.00 | 79 | 1005.8 |
| 20260507131656 | 87 | 170 | 2.0 | 3.0 | 0.00 | 0.00 | 0.00 | 79 | 1005.8 |
| 20260507131159 | 87 | 80 | 2.0 | 3.0 | 0.00 | 0.00 | 0.00 | 79 | 1005.8 |
| 20260507130658 | 87 | 54 | 2.0 | 3.0 | 0.00 | 0.00 | 0.00 | 78 | 1005.6 |
| 20260507130158 | 88 | 101 | 2.0 | 6.0 | 0.00 | 0.00 | 0.00 | 78 | 1005.5 |
| 20260507125659 | 88 | 164 | 2.0 | 3.0 | 0.00 | 0.00 | 0.00 | 77 | 1005.4 |
| 20260507125156 | 88 | 128 | 3.0 | 5.0 | 0.00 | 0.00 | 0.00 | 76 | 1005.4 |
| 20260507124657 | 88 | 75 | 2.0 | 4.0 | 0.00 | 0.00 | 0.00 | 76 | 1005.4 |
| 20260507124156 | 88 | 104 | 2.0 | 3.0 | 0.00 | 0.00 | 0.00 | 76 | 1005.3 |
| 20260507123656 | 88 | 138 | 2.0 | 4.0 | 0.00 | 0.00 | 0.00 | 76 | 1005.3 |
| 20260507123156 | 88 | 117 | 3.0 | 5.0 | 0.00 | 0.00 | 0.00 | 76 | 1005.2 |
| 20260507122658 | 88 | 98 | 2.0 | 5.0 | 0.00 | 0.00 | 0.00 | 76 | 1005.1 |
| 20260507122156 | 88 | 158 | 2.0 | 5.0 | 0.00 | 0.00 | 0.00 | 77 | 1005.0 |
| 20260507121657 | 88 | 131 | 2.0 | 4.0 | 0.00 | 0.00 | 0.00 | 77 | 1005.1 |
| 20260507121157 | 88 | 111 | 2.0 | 4.0 | 0.00 | 0.00 | 0.00 | 78 | 1005.1 |
| 20260507120658 | 88 | 97 | 4.0 | 6.0 | 0.00 | 0.00 | 0.00 | 77 | 1005.0 |
| 20260507120158 | 89 | 88 | 3.0 | 7.0 | 0.00 | 0.00 | 0.00 | 76 | 1005.1 |
| 20260507115657 | 89 | 161 | 2.0 | 3.0 | 0.00 | 0.00 | 0.00 | 77 | 1005.1 |
| 20260507115156 | 89 | 122 | 2.0 | 4.0 | 0.00 | 0.00 | 0.00 | 77 | 1005.1 |
| 20260507114657 | 89 | 108 | 3.0 | 5.0 | 0.00 | 0.00 | 0.00 | 77 | 1005.1 |
| 20260507114156 | 89 | 105 | 4.0 | 7.0 | 0.00 | 0.00 | 0.00 | 77 | 1005.1 |
| 20260507113657 | 89 | 93 | 4.0 | 6.0 | 0.00 | 0.00 | 0.00 | 76 | 1005.1 |
| 20260507113156 | 90 | 108 | 3.0 | 5.0 | 0.00 | 0.00 | 0.00 | 75 | 1005.0 |
| 20260507112657 | 90 | 95 | 4.0 | 6.0 | 0.00 | 0.00 | 0.00 | 74 | 1005.1 |
| 20260507112158 | 90 | 123 | 1.0 | 2.0 | 0.00 | 0.00 | 0.00 | 73 | 1005.1 |
| 20260507111657 | 90 | 135 | 2.0 | 5.0 | 0.00 | 0.00 | 0.00 | 73 | 1005.2 |
| 20260507111200 | 90 | 125 | 2.0 | 3.0 | 0.00 | 0.00 | 0.00 | 72 | 1005.2 |
| 20260507110656 | 90 | 74 | 3.0 | 5.0 | 0.00 | 0.00 | 0.00 | 71 | 1005.2 |
| 20260507110157 | 90 | 85 | 2.0 | 4.0 | 0.00 | 0.00 | 0.00 | 71 | 1005.2 |
| 20260507105656 | 90 | 69 | 4.0 | 8.0 | 0.00 | 0.00 | 0.00 | 70 | 1005.2 |
| 20260507105156 | 91 | 116 | 2.0 | 5.0 | 0.00 | 0.00 | 0.00 | 70 | 1005.3 |
| 20260507104656 | 91 | 102 | 2.0 | 5.0 | 0.00 | 0.00 | 0.00 | 70 | 1005.3 |
| 20260507104156 | 91 | 86 | 3.0 | 5.0 | 0.00 | 0.00 | 0.00 | 70 | 1005.3 |
| 20260507103656 | 91 | 125 | 4.0 | 6.0 | 0.00 | 0.00 | 0.00 | 70 | 1005.3 |
| 20260507103156 | 91 | 106 | 5.0 | 8.0 | 0.00 | 0.00 | 0.00 | 71 | 1005.3 |
| 20260507102656 | 91 | 88 | 3.0 | 6.0 | 0.00 | 0.00 | 0.00 | 73 | 1005.4 |
| 20260507102159 | 91 | 81 | 3.0 | 6.0 | 0.00 | 0.00 | 0.00 | 71 | 1005.4 |
| 20260507101659 | 91 | 92 | 3.0 | 5.0 | 0.00 | 0.00 | 0.00 | 72 | 1005.4 |
| 20260507101157 | 91 | 99 | 2.0 | 6.0 | 0.00 | 0.00 | 0.00 | 71 | 1005.5 |
| 20260507100657 | 92 | 48 | 2.0 | 5.0 | 0.00 | 0.00 | 0.00 | 69 | 1005.5 |
| 20260507100157 | 92 | 102 | 5.0 | 9.0 | 0.00 | 0.00 | 0.00 | 66 | 1005.6 |
| 20260507095658 | 92 | 130 | 2.0 | 6.0 | 0.00 | 0.00 | 0.00 | 68 | 1005.5 |
| 20260507095201 | 92 | 125 | 4.0 | 7.0 | 0.00 | 0.00 | 0.00 | 66 | 1005.6 |
| 20260507094657 | 93 | 106 | 3.0 | 7.0 | 0.00 | 0.00 | 0.00 | 65 | 1005.6 |
| 20260507094156 | 92 | 59 | 3.0 | 6.0 | 0.00 | 0.00 | 0.00 | 65 | 1005.6 |
| 20260507093656 | 92 | 116 | 2.0 | 4.0 | 0.00 | 0.00 | 0.00 | 68 | 1005.6 |
| 20260507093158 | 92 | 70 | 4.0 | 9.0 | 0.00 | 0.00 | 0.00 | 66 | 1005.7 |
| 20260507092658 | 92 | 105 | 2.0 | 6.0 | 0.00 | 0.00 | 0.00 | 66 | 1005.6 |
| 20260507092156 | 92 | 131 | 4.0 | 6.0 | 0.00 | 0.00 | 0.00 | 66 | 1005.6 |
| 20260507091656 | 92 | 98 | 4.0 | 6.0 | 0.00 | 0.00 | 0.00 | 67 | 1005.8 |
| 20260507091156 | 93 | 77 | 3.0 | 6.0 | 0.00 | 0.00 | 0.00 | 66 | 1005.8 |
| 20260507090657 | 93 | 93 | 3.0 | 4.0 | 0.00 | 0.00 | 0.00 | 66 | 1005.8 |
| 20260507090157 | 93 | 57 | 2.0 | 5.0 | 0.00 | 0.00 | 0.00 | 65 | 1005.8 |
| 20260507085656 | 92 | 87 | 3.0 | 6.0 | 0.00 | 0.00 | 0.00 | 66 | 1005.8 |
| 20260507085156 | 92 | 131 | 3.0 | 5.0 | 0.00 | 0.00 | 0.00 | 65 | 1005.9 |
| 20260507084658 | 92 | 106 | 3.0 | 5.0 | 0.00 | 0.00 | 0.00 | 66 | 1005.9 |
| 20260507084156 | 92 | 96 | 5.0 | 8.0 | 0.00 | 0.00 | 0.00 | 66 | 1006.0 |
| 20260507083656 | 92 | 102 | 4.0 | 8.0 | 0.00 | 0.00 | 0.00 | 67 | 1006.0 |
| 20260507083156 | 92 | 93 | 5.0 | 11.0 | 0.00 | 0.00 | 0.00 | 65 | 1006.1 |
| 20260507082656 | 92 | 99 | 4.0 | 6.0 | 0.00 | 0.00 | 0.00 | 67 | 1006.2 |
| 20260507082157 | 92 | 54 | 2.0 | 5.0 | 0.00 | 0.00 | 0.00 | 67 | 1006.2 |
| 20260507081656 | 92 | 115 | 2.0 | 5.0 | 0.00 | 0.00 | 0.00 | 69 | 1006.3 |
| 20260507081157 | 92 | 107 | 4.0 | 9.0 | 0.00 | 0.00 | 0.00 | 68 | 1006.3 |
| 20260507080657 | 93 | 111 | 4.0 | 6.0 | 0.00 | 0.00 | 0.00 | 65 | 1006.5 |
| 20260507080158 | 93 | 106 | 3.0 | 5.0 | 0.00 | 0.00 | 0.00 | 65 | 1006.5 |
| 20260507075656 | 93 | 119 | 4.0 | 6.0 | 0.00 | 0.00 | 0.00 | 65 | 1006.6 |
| 20260507075156 | 93 | 89 | 3.0 | 8.0 | 0.00 | 0.00 | 0.00 | 64 | 1006.7 |
| 20260507074656 | 93 | 154 | 2.0 | 6.0 | 0.00 | 0.00 | 0.00 | 64 | 1006.7 |
| 20260507074158 | 93 | 91 | 4.0 | 6.0 | 0.00 | 0.00 | 0.00 | 64 | 1006.8 |
| 20260507073657 | 93 | 132 | 3.0 | 5.0 | 0.00 | 0.00 | 0.00 | 63 | 1006.9 |
| 20260507073158 | 94 | 91 | 2.0 | 4.0 | 0.00 | 0.00 | 0.00 | 63 | 1006.9 |
| 20260507072656 | 94 | 137 | 3.0 | 3.0 | 0.00 | 0.00 | 0.00 | 61 | 1006.9 |
| 20260507072157 | 95 | 110 | 3.0 | 4.0 | 0.00 | 0.00 | 0.00 | 60 | 1007.0 |
| 20260507071656 | 94 | 118 | 3.0 | 4.0 | 0.00 | 0.00 | 0.00 | 60 | 1007.1 |
| 20260507070753 | 93 | 195 | 2.0 | 3.0 | 0.00 | 0.00 | 0.00 | 62 | 1007.3 |
| 20260507070158 | 94 | 171 | 2.0 | 2.0 | 0.00 | 0.00 | 0.00 | 61 | 1007.4 |
| 20260507065657 | 94 | 180 | 2.0 | 4.0 | 0.00 | 0.00 | 0.00 | 61 | 1007.5 |
| 20260507065157 | 94 | 103 | 3.0 | 4.0 | 0.00 | 0.00 | 0.00 | 61 | 1007.6 |
| 20260507064656 | 93 | 165 | 3.0 | 6.0 | 0.00 | 0.00 | 0.00 | 62 | 1007.6 |
| 20260507064157 | 93 | 165 | 2.0 | 4.0 | 0.00 | 0.00 | 0.00 | 62 | 1007.8 |
| 20260507063656 | 93 | 122 | 3.0 | 5.0 | 0.00 | 0.00 | 0.00 | 63 | 1007.8 |
| 20260507063157 | 93 | 205 | 2.0 | 3.0 | 0.00 | 0.00 | 0.00 | 62 | 1007.7 |
| 20260507062658 | 92 | 165 | 3.0 | 7.0 | 0.00 | 0.00 | 0.00 | 64 | 1007.9 |
| 20260507062157 | 93 | 88 | 3.0 | 7.0 | 0.00 | 0.00 | 0.00 | 63 | 1007.9 |
| 20260507061657 | 94 | 155 | 2.0 | 3.0 | 0.00 | 0.00 | 0.00 | 61 | 1007.8 |
| 20260507061158 | 94 | 85 | 2.0 | 4.0 | 0.00 | 0.00 | 0.00 | 61 | 1007.8 |
| 20260507060659 | 94 | 190 | 2.0 | 3.0 | 0.00 | 0.00 | 0.00 | 62 | 1007.9 |
| 20260507060156 | 94 | 200 | 2.0 | 5.0 | 0.00 | 0.00 | 0.00 | 61 | 1007.9 |
| 20260507055657 | 94 | 102 | 2.0 | 5.0 | 0.00 | 0.00 | 0.00 | 61 | 1008.0 |
| 20260507055158 | 94 | 191 | 3.0 | 4.0 | 0.00 | 0.00 | 0.00 | 60 | 1008.1 |
| 20260507054657 | 94 | 145 | 2.0 | 4.0 | 0.00 | 0.00 | 0.00 | 62 | 1008.2 |
| 20260507054157 | 94 | 150 | 3.0 | 5.0 | 0.00 | 0.00 | 0.00 | 62 | 1008.2 |
| 20260507053657 | 94 | 95 | 4.0 | 7.0 | 0.00 | 0.00 | 0.00 | 59 | 1008.2 |
| 20260507053157 | 94 | 157 | 3.0 | 6.0 | 0.00 | 0.00 | 0.00 | 60 | 1008.3 |
| 20260507052656 | 93 | 73 | 2.0 | 3.0 | 0.00 | 0.00 | 0.00 | 61 | 1008.3 |
| 20260507052156 | 93 | 131 | 2.0 | 3.0 | 0.00 | 0.00 | 0.00 | 60 | 1008.4 |
| 20260507051657 | 93 | 147 | 2.0 | 3.0 | 0.00 | 0.00 | 0.00 | 61 | 1008.4 |
| 20260507051156 | 93 | 124 | 2.0 | 6.0 | 0.00 | 0.00 | 0.00 | 62 | 1008.5 |
| 20260507050656 | 93 | 191 | 2.0 | 3.0 | 0.00 | 0.00 | 0.00 | 63 | 1008.5 |
| 20260507050157 | 93 | 107 | 2.0 | 3.0 | 0.00 | 0.00 | 0.00 | 63 | 1008.6 |
| 20260507045657 | 93 | 178 | 3.0 | 4.0 | 0.00 | 0.00 | 0.00 | 60 | 1008.5 |
| 20260507045156 | 93 | 135 | 2.0 | 4.0 | 0.00 | 0.00 | 0.00 | 60 | 1008.6 |
| 20260507044656 | 92 | 90 | 2.0 | 4.0 | 0.00 | 0.00 | 0.00 | 62 | 1008.5 |
| 20260507044204 | 92 | 68 | 1.0 | 2.0 | 0.00 | 0.00 | 0.00 | 64 | 1008.6 |
| 20260507043656 | 92 | 103 | 3.0 | 5.0 | 0.00 | 0.00 | 0.00 | 64 | 1008.6 |
| 20260507043156 | 92 | 109 | 5.0 | 6.0 | 0.00 | 0.00 | 0.00 | 65 | 1008.6 |
| 20260507042656 | 93 | 142 | 4.0 | 4.0 | 0.00 | 0.00 | 0.00 | 63 | 1008.7 |
| 20260507042157 | 93 | 187 | 2.0 | 2.0 | 0.00 | 0.00 | 0.00 | 64 | 1008.7 |
| 20260507041657 | 94 | 63 | 3.0 | 4.0 | 0.00 | 0.00 | 0.00 | 62 | 1008.7 |
| 20260507041157 | 94 | 147 | 2.0 | 3.0 | 0.00 | 0.00 | 0.00 | 64 | 1008.7 |
| 20260507040656 | 94 | 167 | 3.0 | 4.0 | 0.00 | 0.00 | 0.00 | 63 | 1008.8 |
| 20260507040157 | 93 | 185 | 2.0 | 2.0 | 0.00 | 0.00 | 0.00 | 65 | 1008.8 |
| 20260507035657 | 93 | 145 | 1.0 | 2.0 | 0.00 | 0.00 | 0.00 | 67 | 1008.9 |
| 20260507035156 | 92 | 192 | 2.0 | 2.0 | 0.00 | 0.00 | 0.00 | 68 | 1008.9 |
| 20260507034656 | 92 | 187 | 1.0 | 2.0 | 0.00 | 0.00 | 0.00 | 69 | 1008.9 |
| 20260507034157 | 91 | 217 | 2.0 | 2.0 | 0.00 | 0.00 | 0.00 | 69 | 1008.9 |
| 20260507033659 | 91 | 186 | 1.0 | 3.0 | 0.00 | 0.00 | 0.00 | 71 | 1008.9 |
| 20260507033157 | 91 | 201 | 1.0 | 2.0 | 0.00 | 0.00 | 0.00 | 70 | 1008.9 |
| 20260507032656 | 91 | 195 | 1.0 | 1.0 | 0.00 | 0.00 | 0.00 | 71 | 1008.9 |
| 20260507032156 | 91 | 200 | 1.0 | 2.0 | 0.00 | 0.00 | 0.00 | 71 | 1008.8 |
| 20260507031656 | 91 | 207 | 2.0 | 2.0 | 0.00 | 0.00 | 0.00 | 71 | 1008.8 |
| 20260507031156 | 90 | 134 | 1.0 | 2.0 | 0.00 | 0.00 | 0.00 | 71 | 1008.8 |
| 20260507030701 | 90 | 232 | 1.0 | 2.0 | 0.00 | 0.00 | 0.00 | 72 | 1008.8 |
| 20260507030159 | 89 | 227 | 1.0 | 2.0 | 0.00 | 0.00 | 0.00 | 72 | 1008.8 |
| 20260507025657 | 88 | 8 | 1.0 | 2.0 | 0.00 | 0.00 | 0.00 | 75 | 1008.7 |
| 20260507025156 | 88 | 200 | 2.0 | 2.0 | 0.00 | 0.00 | 0.00 | 78 | 1008.6 |
| 20260507024657 | 88 | 132 | 1.0 | 1.0 | 0.00 | 0.00 | 0.00 | 78 | 1008.6 |
| 20260507024156 | 87 | 176 | 1.0 | 1.0 | 0.00 | 0.00 | 0.00 | 78 | 1008.6 |
| 20260507023656 | 87 | 232 | 0.0 | 1.0 | 0.00 | 0.00 | 0.00 | 80 | 1008.6 |
| 20260507023156 | 87 | 329 | 1.0 | 2.0 | 0.00 | 0.00 | 0.00 | 80 | 1008.5 |
| 20260507022656 | 86 | 51 | 1.0 | 1.0 | 0.00 | 0.00 | 0.00 | 81 | 1008.5 |
| 20260507022157 | 86 | 75 | 0.0 | 1.0 | 0.00 | 0.00 | 0.00 | 81 | 1008.4 |
| 20260507021656 | 86 | 21 | 2.0 | 3.0 | 0.00 | 0.00 | 0.00 | 81 | 1008.4 |
| 20260507021156 | 86 | 25 | 2.0 | 2.0 | 0.00 | 0.00 | 0.00 | 81 | 1008.3 |
| 20260507020657 | 86 | 42 | 2.0 | 2.0 | 0.00 | 0.00 | 0.00 | 81 | 1008.3 |
| 20260507020200 | 86 | 0 | 1.0 | 3.0 | 0.00 | 0.00 | 0.00 | 81 | 1008.3 |
| 20260507015657 | 87 | 40 | 2.0 | 2.0 | 0.00 | 0.00 | 0.00 | 81 | 1008.3 |
| 20260507015156 | 87 | 54 | 2.0 | 2.0 | 0.00 | 0.00 | 0.00 | 81 | 1008.2 |
| 20260507014657 | 87 | 188 | 1.0 | 1.0 | 0.00 | 0.00 | 0.00 | 80 | 1008.1 |
| 20260507014157 | 87 | 198 | 1.0 | 2.0 | 0.00 | 0.00 | 0.00 | 80 | 1008.1 |
| 20260507013656 | 88 | 182 | 1.0 | 2.0 | 0.00 | 0.00 | 0.00 | 79 | 1008.1 |
| 20260507013156 | 88 | 240 | 1.0 | 2.0 | 0.00 | 0.00 | 0.00 | 79 | 1008.0 |
| 20260507012658 | 88 | 38 | 1.0 | 2.0 | 0.00 | 0.00 | 0.00 | 78 | 1007.9 |
| 20260507012157 | 88 | 237 | 1.0 | 1.0 | 0.00 | 0.00 | 0.00 | 77 | 1007.9 |
| 20260507011659 | 87 | 197 | 0.0 | 1.0 | 0.00 | 0.00 | 0.00 | 79 | 1007.9 |
| 20260507011156 | 86 | 82 | 1.0 | 1.0 | 0.00 | 0.00 | 0.00 | 81 | 1007.8 |
| 20260507010657 | 85 | 0 | 0.0 | 0.0 | 0.00 | 0.00 | 0.00 | 82 | 1007.8 |
| 20260507010156 | 85 | 163 | 1.0 | 2.0 | 0.00 | 0.00 | 0.00 | 82 | 1007.7 |
| 20260507005656 | 85 | 95 | 1.0 | 2.0 | 0.00 | 0.00 | 0.00 | 83 | 1007.5 |
| 20260507005156 | 85 | 149 | 0.0 | 2.0 | 0.00 | 0.00 | 0.00 | 83 | 1007.4 |
| 20260507004656 | 85 | 124 | 0.0 | 1.0 | 0.00 | 0.00 | 0.00 | 83 | 1007.4 |
| 20260507004157 | 85 | 168 | 0.0 | 1.0 | 0.00 | 0.00 | 0.00 | 84 | 1007.4 |
| 20260507003657 | 85 | 197 | 1.0 | 1.0 | 0.00 | 0.00 | 0.00 | 84 | 1007.4 |
| 20260507003156 | 85 | 179 | 0.0 | 1.0 | 0.00 | 0.00 | 0.00 | 84 | 1007.3 |
| 20260507002656 | 85 | 145 | 1.0 | 2.0 | 0.00 | 0.00 | 0.00 | 84 | 1007.2 |
| 20260507002156 | 85 | 190 | 1.0 | 2.0 | 0.00 | 0.00 | 0.00 | 84 | 1007.2 |
| 20260507001659 | 85 | 269 | 0.0 | 1.0 | 0.00 | 0.00 | 0.00 | 84 | 1007.1 |
| 20260507001156 | 85 | 72 | 0.0 | 1.0 | 0.00 | 0.00 | 0.00 | 84 | 1007.0 |
| 20260507000659 | 85 | 128 | 1.0 | 2.0 | 0.00 | 0.00 | 0.00 | 84 | 1007.0 |
| 20260507000156 | 85 | 149 | 1.0 | 1.0 | 0.00 | 0.00 | 0.00 | 84 | 1007.0 |
| 20260506235700 | 85 | 178 | 1.0 | 2.0 | 0.00 | 0.00 | 0.00 | 83 | 1007.0 |
| 20260506235159 | 85 | 154 | 0.0 | 2.0 | 0.00 | 0.00 | 0.00 | 83 | 1006.9 |
| 20260506234657 | 85 | 182 | 1.0 | 2.0 | 0.00 | 0.00 | 0.00 | 83 | 1006.8 |
| 20260506234156 | 85 | 122 | 1.0 | 2.0 | 0.00 | 0.00 | 0.00 | 83 | 1006.8 |
| 20260506233657 | 85 | 148 | 1.0 | 2.0 | 0.00 | 0.00 | 0.00 | 83 | 1006.7 |
| 20260506233157 | 85 | 163 | 1.0 | 3.0 | 0.00 | 0.00 | 0.00 | 83 | 1006.7 |
| 20260506232657 | 85 | 140 | 1.0 | 2.0 | 0.00 | 0.00 | 0.00 | 83 | 1006.7 |
| 20260506232159 | 85 | 213 | 0.0 | 1.0 | 0.00 | 0.00 | 0.00 | 83 | 1006.6 |
| 20260506231656 | 85 | 205 | 0.0 | 1.0 | 0.00 | 0.00 | 0.00 | 83 | 1006.5 |
| 20260506231156 | 85 | 148 | 0.0 | 1.0 | 0.00 | 0.00 | 0.00 | 83 | 1006.5 |
| 20260506230656 | 85 | 156 | 1.0 | 1.0 | 0.00 | 0.00 | 0.00 | 82 | 1006.4 |
| 20260506230156 | 85 | 67 | 0.0 | 1.0 | 0.00 | 0.00 | 0.00 | 82 | 1006.4 |
| 20260506225657 | 85 | 128 | 1.0 | 2.0 | 0.00 | 0.00 | 0.00 | 82 | 1006.4 |
| 20260506225156 | 85 | 205 | 1.0 | 2.0 | 0.00 | 0.00 | 0.00 | 82 | 1006.4 |
| 20260506224658 | 85 | 227 | 1.0 | 1.0 | 0.00 | 0.00 | 0.00 | 82 | 1006.3 |
| 20260506224157 | 85 | 127 | 1.0 | 2.0 | 0.00 | 0.00 | 0.00 | 82 | 1006.3 |
| 20260506223657 | 85 | 190 | 1.0 | 3.0 | 0.00 | 0.00 | 0.00 | 82 | 1006.3 |
| 20260506223156 | 85 | 163 | 2.0 | 4.0 | 0.00 | 0.00 | 0.00 | 82 | 1006.3 |
| 20260506222657 | 85 | 200 | 0.0 | 2.0 | 0.00 | 0.00 | 0.00 | 81 | 1006.2 |
| 20260506222157 | 85 | 243 | 1.0 | 2.0 | 0.00 | 0.00 | 0.00 | 81 | 1006.2 |
| 20260506221656 | 85 | 148 | 1.0 | 2.0 | 0.00 | 0.00 | 0.00 | 81 | 1006.3 |
| 20260506221157 | 85 | 168 | 1.0 | 2.0 | 0.00 | 0.00 | 0.00 | 81 | 1006.2 |
| 20260506220657 | 85 | 199 | 2.0 | 3.0 | 0.00 | 0.00 | 0.00 | 81 | 1006.1 |
| 20260506220157 | 85 | 138 | 1.0 | 2.0 | 0.00 | 0.00 | 0.00 | 81 | 1006.0 |
| 20260506215656 | 85 | 169 | 1.0 | 4.0 | 0.00 | 0.00 | 0.00 | 81 | 1006.1 |
| 20260506215156 | 85 | 207 | 1.0 | 3.0 | 0.00 | 0.00 | 0.00 | 81 | 1006.1 |
| 20260506214656 | 85 | 144 | 2.0 | 6.0 | 0.00 | 0.00 | 0.00 | 81 | 1006.1 |